sensor_id;sensor_type;location;lat;lon;timestamp;P1;durP1;ratioP1;P2;durP2;ratioP2
1885;SDS011;943;51.568;6.998;2023-02-08T00:01:20;34.90;;;19.10;;
1885;SDS011;943;51.568;6.998;2023-02-08T00:03:52;29.40;;;19.33;;
1885;SDS011;943;51.568;6.998;2023-02-08T00:06:20;29.30;;;18.77;;
1885;SDS011;943;51.568;6.998;2023-02-08T00:08:48;30.83;;;19.57;;
1885;SDS011;943;51.568;6.998;2023-02-08T00:11:16;33.30;;;19.17;;
1885;SDS011;943;51.568;6.998;2023-02-08T00:13:44;31.13;;;20.10;;
1885;SDS011;943;51.568;6.998;2023-02-08T00:16:12;28.70;;;18.63;;
1885;SDS011;943;51.568;6.998;2023-02-08T00:18:42;28.50;;;18.33;;
1885;SDS011;943;51.568;6.998;2023-02-08T00:21:10;30.37;;;18.63;;
1885;SDS011;943;51.568;6.998;2023-02-08T00:23:44;31.70;;;21.23;;
1885;SDS011;943;51.568;6.998;2023-02-08T00:26:12;30.67;;;19.00;;
1885;SDS011;943;51.568;6.998;2023-02-08T00:28:41;29.87;;;17.70;;
1885;SDS011;943;51.568;6.998;2023-02-08T00:31:09;25.93;;;18.27;;
1885;SDS011;943;51.568;6.998;2023-02-08T00:33:37;26.40;;;17.37;;
1885;SDS011;943;51.568;6.998;2023-02-08T00:36:06;28.23;;;18.00;;
1885;SDS011;943;51.568;6.998;2023-02-08T00:38:39;32.17;;;18.63;;
1885;SDS011;943;51.568;6.998;2023-02-08T00:41:08;26.87;;;16.90;;
1885;SDS011;943;51.568;6.998;2023-02-08T00:43:36;33.97;;;19.60;;
1885;SDS011;943;51.568;6.998;2023-02-08T00:46:04;33.97;;;18.87;;
1885;SDS011;943;51.568;6.998;2023-02-08T00:48:33;30.20;;;19.27;;
1885;SDS011;943;51.568;6.998;2023-02-08T00:51:05;28.90;;;18.70;;
1885;SDS011;943;51.568;6.998;2023-02-08T00:53:43;31.77;;;18.63;;
1885;SDS011;943;51.568;6.998;2023-02-08T00:56:13;29.40;;;18.23;;
1885;SDS011;943;51.568;6.998;2023-02-08T00:58:42;34.33;;;20.33;;
1885;SDS011;943;51.568;6.998;2023-02-08T01:01:11;27.47;;;19.83;;
1885;SDS011;943;51.568;6.998;2023-02-08T01:03:41;29.03;;;18.47;;
1885;SDS011;943;51.568;6.998;2023-02-08T01:06:12;32.07;;;20.13;;
1885;SDS011;943;51.568;6.998;2023-02-08T01:08:44;28.83;;;18.50;;
1885;SDS011;943;51.568;6.998;2023-02-08T01:11:18;36.57;;;21.03;;
1885;SDS011;943;51.568;6.998;2023-02-08T01:13:51;34.60;;;19.77;;
1885;SDS011;943;51.568;6.998;2023-02-08T01:16:27;29.70;;;19.80;;
1885;SDS011;943;51.568;6.998;2023-02-08T01:19:00;33.77;;;18.10;;
1885;SDS011;943;51.568;6.998;2023-02-08T01:21:36;25.27;;;17.20;;
1885;SDS011;943;51.568;6.998;2023-02-08T01:24:08;29.70;;;19.20;;
1885;SDS011;943;51.568;6.998;2023-02-08T01:26:37;31.43;;;19.57;;
1885;SDS011;943;51.568;6.998;2023-02-08T01:29:07;33.73;;;20.60;;
1885;SDS011;943;51.568;6.998;2023-02-08T01:31:38;28.87;;;19.40;;
1885;SDS011;943;51.568;6.998;2023-02-08T01:34:10;31.50;;;20.57;;
1885;SDS011;943;51.568;6.998;2023-02-08T01:36:41;31.23;;;21.00;;
1885;SDS011;943;51.568;6.998;2023-02-08T01:39:09;34.00;;;21.00;;
1885;SDS011;943;51.568;6.998;2023-02-08T01:41:39;30.67;;;20.57;;
1885;SDS011;943;51.568;6.998;2023-02-08T01:46:41;38.73;;;21.40;;
1885;SDS011;943;51.568;6.998;2023-02-08T01:52:08;27.33;;;19.50;;
1885;SDS011;943;51.568;6.998;2023-02-08T01:55:07;38.40;;;22.03;;
1885;SDS011;943;51.568;6.998;2023-02-08T01:57:44;32.93;;;23.00;;
1885;SDS011;943;51.568;6.998;2023-02-08T02:00:19;36.70;;;22.67;;
1885;SDS011;943;51.568;6.998;2023-02-08T02:02:51;39.30;;;21.60;;
1885;SDS011;943;51.568;6.998;2023-02-08T02:05:32;36.47;;;23.43;;
1885;SDS011;943;51.568;6.998;2023-02-08T02:08:12;29.27;;;20.57;;
1885;SDS011;943;51.568;6.998;2023-02-08T02:10:41;32.80;;;19.80;;
1885;SDS011;943;51.568;6.998;2023-02-08T02:13:11;31.90;;;20.37;;
1885;SDS011;943;51.568;6.998;2023-02-08T02:15:49;39.60;;;21.57;;
1885;SDS011;943;51.568;6.998;2023-02-08T02:18:23;35.20;;;22.00;;
1885;SDS011;943;51.568;6.998;2023-02-08T02:24:35;28.63;;;19.63;;
1885;SDS011;943;51.568;6.998;2023-02-08T02:37:29;28.00;;;19.20;;
1885;SDS011;943;51.568;6.998;2023-02-08T02:40:59;29.53;;;19.43;;
1885;SDS011;943;51.568;6.998;2023-02-08T02:44:27;31.37;;;20.30;;
1885;SDS011;943;51.568;6.998;2023-02-08T02:50:42;34.83;;;20.10;;
1885;SDS011;943;51.568;6.998;2023-02-08T02:53:36;25.63;;;17.60;;
1885;SDS011;943;51.568;6.998;2023-02-08T02:56:22;33.57;;;20.20;;
1885;SDS011;943;51.568;6.998;2023-02-08T02:59:08;28.93;;;18.47;;
1885;SDS011;943;51.568;6.998;2023-02-08T03:01:42;36.83;;;20.87;;
1885;SDS011;943;51.568;6.998;2023-02-08T03:04:13;32.80;;;19.80;;
1885;SDS011;943;51.568;6.998;2023-02-08T03:09:49;29.13;;;18.17;;
1885;SDS011;943;51.568;6.998;2023-02-08T03:16:18;28.20;;;17.73;;
1885;SDS011;943;51.568;6.998;2023-02-08T03:31:36;32.00;;;17.70;;
1885;SDS011;943;51.568;6.998;2023-02-08T03:37:28;23.73;;;17.70;;
1885;SDS011;943;51.568;6.998;2023-02-08T03:40:40;26.37;;;17.80;;
1885;SDS011;943;51.568;6.998;2023-02-08T03:43:22;35.90;;;21.50;;
1885;SDS011;943;51.568;6.998;2023-02-08T03:46:17;26.47;;;17.37;;
1885;SDS011;943;51.568;6.998;2023-02-08T03:49:03;27.50;;;16.17;;
1885;SDS011;943;51.568;6.998;2023-02-08T03:51:51;26.90;;;17.00;;
1885;SDS011;943;51.568;6.998;2023-02-08T03:54:28;24.43;;;16.40;;
1885;SDS011;943;51.568;6.998;2023-02-08T03:57:29;28.90;;;17.90;;
1885;SDS011;943;51.568;6.998;2023-02-08T04:00:51;25.23;;;15.20;;
1885;SDS011;943;51.568;6.998;2023-02-08T04:03:35;26.13;;;17.50;;
1885;SDS011;943;51.568;6.998;2023-02-08T04:06:05;24.80;;;15.57;;
1885;SDS011;943;51.568;6.998;2023-02-08T04:08:33;23.23;;;15.40;;
1885;SDS011;943;51.568;6.998;2023-02-08T04:11:01;23.93;;;16.30;;
1885;SDS011;943;51.568;6.998;2023-02-08T04:13:29;26.57;;;16.50;;
1885;SDS011;943;51.568;6.998;2023-02-08T04:15:57;25.13;;;16.50;;
1885;SDS011;943;51.568;6.998;2023-02-08T04:18:24;24.10;;;17.47;;
1885;SDS011;943;51.568;6.998;2023-02-08T04:20:52;27.70;;;16.50;;
1885;SDS011;943;51.568;6.998;2023-02-08T04:23:20;22.63;;;16.57;;
1885;SDS011;943;51.568;6.998;2023-02-08T04:25:48;26.40;;;17.77;;
1885;SDS011;943;51.568;6.998;2023-02-08T04:28:16;22.73;;;15.70;;
1885;SDS011;943;51.568;6.998;2023-02-08T04:30:44;28.07;;;17.57;;
1885;SDS011;943;51.568;6.998;2023-02-08T04:33:12;25.03;;;16.23;;
1885;SDS011;943;51.568;6.998;2023-02-08T04:35:40;21.60;;;14.40;;
1885;SDS011;943;51.568;6.998;2023-02-08T04:38:09;25.90;;;15.97;;
1885;SDS011;943;51.568;6.998;2023-02-08T04:40:36;23.73;;;16.00;;
1885;SDS011;943;51.568;6.998;2023-02-08T04:43:05;25.23;;;15.00;;
1885;SDS011;943;51.568;6.998;2023-02-08T04:45:32;27.07;;;16.30;;
1885;SDS011;943;51.568;6.998;2023-02-08T04:48:00;24.23;;;15.30;;
1885;SDS011;943;51.568;6.998;2023-02-08T04:50:29;27.93;;;17.07;;
1885;SDS011;943;51.568;6.998;2023-02-08T04:52:57;24.00;;;15.37;;
1885;SDS011;943;51.568;6.998;2023-02-08T04:55:25;21.57;;;15.10;;
1885;SDS011;943;51.568;6.998;2023-02-08T04:57:52;21.87;;;15.40;;
1885;SDS011;943;51.568;6.998;2023-02-08T05:00:20;26.73;;;17.03;;
1885;SDS011;943;51.568;6.998;2023-02-08T05:02:51;23.80;;;14.43;;
1885;SDS011;943;51.568;6.998;2023-02-08T05:05:23;23.50;;;16.80;;
1885;SDS011;943;51.568;6.998;2023-02-08T05:07:53;26.13;;;15.97;;
1885;SDS011;943;51.568;6.998;2023-02-08T05:10:21;26.33;;;15.90;;
1885;SDS011;943;51.568;6.998;2023-02-08T05:12:49;23.90;;;15.90;;
1885;SDS011;943;51.568;6.998;2023-02-08T05:15:17;25.57;;;16.07;;
1885;SDS011;943;51.568;6.998;2023-02-08T05:17:45;25.47;;;15.10;;
1885;SDS011;943;51.568;6.998;2023-02-08T05:20:13;30.47;;;17.93;;
1885;SDS011;943;51.568;6.998;2023-02-08T05:22:41;25.70;;;17.03;;
1885;SDS011;943;51.568;6.998;2023-02-08T05:25:09;27.27;;;17.27;;
1885;SDS011;943;51.568;6.998;2023-02-08T05:27:37;24.20;;;16.80;;
1885;SDS011;943;51.568;6.998;2023-02-08T05:30:05;27.17;;;17.97;;
1885;SDS011;943;51.568;6.998;2023-02-08T05:32:33;22.60;;;15.57;;
1885;SDS011;943;51.568;6.998;2023-02-08T05:35:02;29.13;;;16.67;;
1885;SDS011;943;51.568;6.998;2023-02-08T05:37:30;27.87;;;16.90;;
1885;SDS011;943;51.568;6.998;2023-02-08T05:39:58;34.90;;;15.87;;
1885;SDS011;943;51.568;6.998;2023-02-08T05:42:26;24.77;;;15.53;;
1885;SDS011;943;51.568;6.998;2023-02-08T05:44:53;23.33;;;18.27;;
1885;SDS011;943;51.568;6.998;2023-02-08T05:47:21;26.93;;;17.93;;
1885;SDS011;943;51.568;6.998;2023-02-08T05:49:49;24.60;;;16.77;;
1885;SDS011;943;51.568;6.998;2023-02-08T05:52:16;24.13;;;16.00;;
1885;SDS011;943;51.568;6.998;2023-02-08T05:54:44;31.10;;;18.60;;
1885;SDS011;943;51.568;6.998;2023-02-08T05:57:12;24.87;;;17.37;;
1885;SDS011;943;51.568;6.998;2023-02-08T05:59:39;26.60;;;16.60;;
1885;SDS011;943;51.568;6.998;2023-02-08T06:02:07;28.47;;;17.00;;
1885;SDS011;943;51.568;6.998;2023-02-08T06:04:35;21.63;;;15.93;;
1885;SDS011;943;51.568;6.998;2023-02-08T06:07:04;23.70;;;15.67;;
1885;SDS011;943;51.568;6.998;2023-02-08T06:09:32;29.00;;;16.40;;
1885;SDS011;943;51.568;6.998;2023-02-08T06:12:00;25.83;;;16.80;;
1885;SDS011;943;51.568;6.998;2023-02-08T06:14:28;22.10;;;16.73;;
1885;SDS011;943;51.568;6.998;2023-02-08T06:16:55;21.83;;;15.03;;
1885;SDS011;943;51.568;6.998;2023-02-08T06:19:23;26.83;;;15.73;;
1885;SDS011;943;51.568;6.998;2023-02-08T06:21:51;34.00;;;17.40;;
1885;SDS011;943;51.568;6.998;2023-02-08T06:24:19;26.97;;;16.97;;
1885;SDS011;943;51.568;6.998;2023-02-08T06:26:46;29.37;;;18.17;;
1885;SDS011;943;51.568;6.998;2023-02-08T06:29:14;27.57;;;15.53;;
1885;SDS011;943;51.568;6.998;2023-02-08T06:31:42;25.20;;;18.47;;
1885;SDS011;943;51.568;6.998;2023-02-08T06:34:09;28.80;;;17.53;;
1885;SDS011;943;51.568;6.998;2023-02-08T06:36:37;24.17;;;16.60;;
1885;SDS011;943;51.568;6.998;2023-02-08T06:39:05;25.67;;;17.07;;
1885;SDS011;943;51.568;6.998;2023-02-08T06:41:32;33.23;;;19.70;;
1885;SDS011;943;51.568;6.998;2023-02-08T06:44:00;26.67;;;17.67;;
1885;SDS011;943;51.568;6.998;2023-02-08T06:46:31;28.30;;;16.83;;
1885;SDS011;943;51.568;6.998;2023-02-08T06:48:59;30.97;;;17.30;;
1885;SDS011;943;51.568;6.998;2023-02-08T06:51:27;26.70;;;16.20;;
1885;SDS011;943;51.568;6.998;2023-02-08T06:53:55;25.97;;;15.63;;
1885;SDS011;943;51.568;6.998;2023-02-08T06:56:23;30.33;;;18.17;;
1885;SDS011;943;51.568;6.998;2023-02-08T06:58:51;20.97;;;16.50;;
1885;SDS011;943;51.568;6.998;2023-02-08T07:01:18;28.60;;;19.00;;
1885;SDS011;943;51.568;6.998;2023-02-08T07:03:46;27.60;;;17.33;;
1885;SDS011;943;51.568;6.998;2023-02-08T07:06:14;25.10;;;17.13;;
1885;SDS011;943;51.568;6.998;2023-02-08T07:08:46;26.00;;;19.20;;
1885;SDS011;943;51.568;6.998;2023-02-08T07:11:15;28.53;;;18.80;;
1885;SDS011;943;51.568;6.998;2023-02-08T07:13:46;32.13;;;20.00;;
1885;SDS011;943;51.568;6.998;2023-02-08T07:16:18;30.60;;;20.60;;
1885;SDS011;943;51.568;6.998;2023-02-08T07:18:46;34.17;;;21.10;;
1885;SDS011;943;51.568;6.998;2023-02-08T07:21:14;29.73;;;21.97;;
1885;SDS011;943;51.568;6.998;2023-02-08T07:23:42;30.10;;;20.60;;
1885;SDS011;943;51.568;6.998;2023-02-08T07:26:11;32.97;;;21.57;;
1885;SDS011;943;51.568;6.998;2023-02-08T07:28:40;59.67;;;33.13;;
1885;SDS011;943;51.568;6.998;2023-02-08T07:31:12;47.50;;;28.10;;
1885;SDS011;943;51.568;6.998;2023-02-08T07:33:43;50.70;;;27.50;;
1885;SDS011;943;51.568;6.998;2023-02-08T07:36:11;38.97;;;25.83;;
1885;SDS011;943;51.568;6.998;2023-02-08T07:38:39;40.30;;;25.47;;
1885;SDS011;943;51.568;6.998;2023-02-08T07:41:08;38.57;;;25.27;;
1885;SDS011;943;51.568;6.998;2023-02-08T07:43:40;37.27;;;23.67;;
1885;SDS011;943;51.568;6.998;2023-02-08T07:46:10;34.23;;;23.83;;
1885;SDS011;943;51.568;6.998;2023-02-08T07:48:42;46.70;;;27.40;;
1885;SDS011;943;51.568;6.998;2023-02-08T07:51:11;60.50;;;32.97;;
1885;SDS011;943;51.568;6.998;2023-02-08T07:53:39;74.53;;;46.03;;
1885;SDS011;943;51.568;6.998;2023-02-08T07:56:07;68.07;;;39.50;;
1885;SDS011;943;51.568;6.998;2023-02-08T07:58:36;90.23;;;41.20;;
1885;SDS011;943;51.568;6.998;2023-02-08T08:01:04;69.70;;;39.57;;
1885;SDS011;943;51.568;6.998;2023-02-08T08:03:46;77.80;;;42.83;;
1885;SDS011;943;51.568;6.998;2023-02-08T08:06:18;78.00;;;42.07;;
1885;SDS011;943;51.568;6.998;2023-02-08T08:08:48;75.53;;;40.47;;
1885;SDS011;943;51.568;6.998;2023-02-08T08:11:17;60.83;;;36.17;;
1885;SDS011;943;51.568;6.998;2023-02-08T08:13:47;42.10;;;28.03;;
1885;SDS011;943;51.568;6.998;2023-02-08T08:16:16;47.00;;;30.37;;
1885;SDS011;943;51.568;6.998;2023-02-08T08:18:46;48.10;;;30.77;;
1885;SDS011;943;51.568;6.998;2023-02-08T08:21:15;38.20;;;26.53;;
1885;SDS011;943;51.568;6.998;2023-02-08T08:23:43;37.43;;;26.53;;
1885;SDS011;943;51.568;6.998;2023-02-08T08:26:12;39.90;;;26.53;;
1885;SDS011;943;51.568;6.998;2023-02-08T08:28:45;37.63;;;26.87;;
1885;SDS011;943;51.568;6.998;2023-02-08T08:31:15;36.13;;;26.40;;
1885;SDS011;943;51.568;6.998;2023-02-08T08:33:47;37.70;;;22.33;;
1885;SDS011;943;51.568;6.998;2023-02-08T08:36:16;27.50;;;18.70;;
1885;SDS011;943;51.568;6.998;2023-02-08T08:38:44;28.00;;;19.03;;
1885;SDS011;943;51.568;6.998;2023-02-08T08:41:13;24.40;;;16.13;;
1885;SDS011;943;51.568;6.998;2023-02-08T08:43:44;21.43;;;16.17;;
1885;SDS011;943;51.568;6.998;2023-02-08T08:46:12;29.40;;;15.03;;
1885;SDS011;943;51.568;6.998;2023-02-08T08:48:42;23.07;;;13.13;;
1885;SDS011;943;51.568;6.998;2023-02-08T08:51:11;23.93;;;15.03;;
1885;SDS011;943;51.568;6.998;2023-02-08T08:53:39;20.53;;;14.33;;
1885;SDS011;943;51.568;6.998;2023-02-08T08:56:07;18.83;;;12.97;;
1885;SDS011;943;51.568;6.998;2023-02-08T08:58:35;23.63;;;14.20;;
1885;SDS011;943;51.568;6.998;2023-02-08T09:01:03;18.93;;;14.00;;
1885;SDS011;943;51.568;6.998;2023-02-08T09:03:31;19.90;;;14.50;;
1885;SDS011;943;51.568;6.998;2023-02-08T09:05:59;18.00;;;14.10;;
1885;SDS011;943;51.568;6.998;2023-02-08T09:08:27;24.23;;;15.30;;
1885;SDS011;943;51.568;6.998;2023-02-08T09:10:54;18.87;;;13.70;;
1885;SDS011;943;51.568;6.998;2023-02-08T09:13:34;20.97;;;13.20;;
1885;SDS011;943;51.568;6.998;2023-02-08T09:16:04;17.67;;;13.20;;
1885;SDS011;943;51.568;6.998;2023-02-08T09:18:43;18.83;;;13.73;;
1885;SDS011;943;51.568;6.998;2023-02-08T09:21:16;22.37;;;13.80;;
1885;SDS011;943;51.568;6.998;2023-02-08T09:23:52;21.67;;;13.30;;
1885;SDS011;943;51.568;6.998;2023-02-08T09:26:20;16.40;;;11.53;;
1885;SDS011;943;51.568;6.998;2023-02-08T09:28:50;16.37;;;12.77;;
1885;SDS011;943;51.568;6.998;2023-02-08T09:31:22;23.70;;;19.33;;
1885;SDS011;943;51.568;6.998;2023-02-08T09:33:57;22.30;;;17.40;;
1885;SDS011;943;51.568;6.998;2023-02-08T09:36:28;21.83;;;13.80;;
1885;SDS011;943;51.568;6.998;2023-02-08T09:39:05;19.63;;;14.03;;
1885;SDS011;943;51.568;6.998;2023-02-08T09:45:17;19.10;;;13.50;;
1885;SDS011;943;51.568;6.998;2023-02-08T09:48:27;25.23;;;17.03;;
1885;SDS011;943;51.568;6.998;2023-02-08T09:51:06;18.60;;;9.90;;
1885;SDS011;943;51.568;6.998;2023-02-08T09:57:19;17.20;;;11.47;;
1885;SDS011;943;51.568;6.998;2023-02-08T10:00:00;14.60;;;10.10;;
1885;SDS011;943;51.568;6.998;2023-02-08T10:02:42;13.63;;;9.67;;
1885;SDS011;943;51.568;6.998;2023-02-08T10:05:23;12.87;;;9.83;;
1885;SDS011;943;51.568;6.998;2023-02-08T10:07:54;9.93;;;7.10;;
1885;SDS011;943;51.568;6.998;2023-02-08T10:10:36;10.47;;;6.47;;
1885;SDS011;943;51.568;6.998;2023-02-08T10:13:38;12.03;;;7.30;;
1885;SDS011;943;51.568;6.998;2023-02-08T10:35:00;11.47;;;8.10;;
1885;SDS011;943;51.568;6.998;2023-02-08T10:37:40;15.23;;;8.70;;
1885;SDS011;943;51.568;6.998;2023-02-08T10:51:38;9.47;;;6.70;;
1885;SDS011;943;51.568;6.998;2023-02-08T10:54:08;9.00;;;6.57;;
1885;SDS011;943;51.568;6.998;2023-02-08T10:59:28;8.10;;;6.70;;
1885;SDS011;943;51.568;6.998;2023-02-08T11:02:20;6.40;;;4.87;;
1885;SDS011;943;51.568;6.998;2023-02-08T11:04:56;7.40;;;5.20;;
1885;SDS011;943;51.568;6.998;2023-02-08T11:07:33;9.53;;;6.47;;
1885;SDS011;943;51.568;6.998;2023-02-08T11:10:12;8.50;;;5.20;;
1885;SDS011;943;51.568;6.998;2023-02-08T11:12:55;11.60;;;7.30;;
1885;SDS011;943;51.568;6.998;2023-02-08T11:18:29;7.53;;;4.60;;
1885;SDS011;943;51.568;6.998;2023-02-08T11:21:26;10.03;;;6.73;;
1885;SDS011;943;51.568;6.998;2023-02-08T11:32:42;10.13;;;6.53;;
1885;SDS011;943;51.568;6.998;2023-02-08T11:37:50;12.90;;;5.53;;
1885;SDS011;943;51.568;6.998;2023-02-08T11:40:25;9.80;;;4.93;;
1885;SDS011;943;51.568;6.998;2023-02-08T11:43:18;15.30;;;8.00;;
1885;SDS011;943;51.568;6.998;2023-02-08T11:46:08;11.00;;;6.77;;
1885;SDS011;943;51.568;6.998;2023-02-08T11:48:44;8.60;;;5.40;;
1885;SDS011;943;51.568;6.998;2023-02-08T11:51:29;7.23;;;5.50;;
1885;SDS011;943;51.568;6.998;2023-02-08T11:54:38;8.90;;;4.80;;
1885;SDS011;943;51.568;6.998;2023-02-08T11:57:12;12.07;;;6.20;;
1885;SDS011;943;51.568;6.998;2023-02-08T12:03:23;6.80;;;5.20;;
1885;SDS011;943;51.568;6.998;2023-02-08T12:12:52;10.47;;;6.47;;
1885;SDS011;943;51.568;6.998;2023-02-08T12:16:04;9.33;;;4.97;;
1885;SDS011;943;51.568;6.998;2023-02-08T12:22:42;8.60;;;6.23;;
1885;SDS011;943;51.568;6.998;2023-02-08T12:25:51;7.10;;;4.67;;
1885;SDS011;943;51.568;6.998;2023-02-08T12:32:31;10.27;;;5.40;;
1885;SDS011;943;51.568;6.998;2023-02-08T12:48:12;8.50;;;5.40;;
1885;SDS011;943;51.568;6.998;2023-02-08T12:57:34;9.70;;;6.60;;
1885;SDS011;943;51.568;6.998;2023-02-08T13:00:17;7.30;;;4.70;;
1885;SDS011;943;51.568;6.998;2023-02-08T13:06:14;8.20;;;4.73;;
1885;SDS011;943;51.568;6.998;2023-02-08T13:09:41;6.70;;;5.10;;
1885;SDS011;943;51.568;6.998;2023-02-08T13:12:33;9.40;;;5.73;;
1885;SDS011;943;51.568;6.998;2023-02-08T13:15:21;7.87;;;5.40;;
1885;SDS011;943;51.568;6.998;2023-02-08T13:18:36;9.53;;;4.93;;
1885;SDS011;943;51.568;6.998;2023-02-08T13:21:44;9.57;;;5.20;;
1885;SDS011;943;51.568;6.998;2023-02-08T13:24:49;9.70;;;5.50;;
1885;SDS011;943;51.568;6.998;2023-02-08T13:27:27;6.33;;;4.70;;
1885;SDS011;943;51.568;6.998;2023-02-08T13:29:55;8.73;;;5.10;;
1885;SDS011;943;51.568;6.998;2023-02-08T13:32:29;7.67;;;4.70;;
1885;SDS011;943;51.568;6.998;2023-02-08T13:35:12;10.00;;;5.63;;
1885;SDS011;943;51.568;6.998;2023-02-08T13:38:05;6.50;;;4.50;;
1885;SDS011;943;51.568;6.998;2023-02-08T13:41:03;8.90;;;4.77;;
1885;SDS011;943;51.568;6.998;2023-02-08T13:43:48;9.00;;;5.40;;
1885;SDS011;943;51.568;6.998;2023-02-08T13:46:50;9.53;;;5.33;;
1885;SDS011;943;51.568;6.998;2023-02-08T13:57:59;16.23;;;4.83;;
1885;SDS011;943;51.568;6.998;2023-02-08T14:03:25;8.47;;;4.77;;
1885;SDS011;943;51.568;6.998;2023-02-08T14:15:40;8.17;;;4.37;;
1885;SDS011;943;51.568;6.998;2023-02-08T14:18:21;7.17;;;3.93;;
1885;SDS011;943;51.568;6.998;2023-02-08T14:20:57;12.47;;;5.30;;
1885;SDS011;943;51.568;6.998;2023-02-08T14:23:34;11.77;;;7.60;;
1885;SDS011;943;51.568;6.998;2023-02-08T14:26:14;10.37;;;5.10;;
1885;SDS011;943;51.568;6.998;2023-02-08T14:28:53;8.13;;;4.10;;
1885;SDS011;943;51.568;6.998;2023-02-08T14:31:37;8.40;;;4.57;;
1885;SDS011;943;51.568;6.998;2023-02-08T14:34:19;8.83;;;5.67;;
1885;SDS011;943;51.568;6.998;2023-02-08T14:49:08;7.73;;;4.47;;
1885;SDS011;943;51.568;6.998;2023-02-08T14:52:01;10.07;;;5.00;;
1885;SDS011;943;51.568;6.998;2023-02-08T14:54:46;9.10;;;6.33;;
1885;SDS011;943;51.568;6.998;2023-02-08T14:57:39;7.90;;;4.57;;
1885;SDS011;943;51.568;6.998;2023-02-08T15:00:16;8.47;;;4.90;;
1885;SDS011;943;51.568;6.998;2023-02-08T15:03:00;10.43;;;6.90;;
1885;SDS011;943;51.568;6.998;2023-02-08T15:05:42;13.77;;;7.03;;
1885;SDS011;943;51.568;6.998;2023-02-08T15:09:00;8.97;;;5.43;;
1885;SDS011;943;51.568;6.998;2023-02-08T15:11:56;8.43;;;5.50;;
1885;SDS011;943;51.568;6.998;2023-02-08T15:14:38;8.23;;;5.37;;
1885;SDS011;943;51.568;6.998;2023-02-08T15:17:19;9.23;;;5.30;;
1885;SDS011;943;51.568;6.998;2023-02-08T15:20:21;9.93;;;4.77;;
1885;SDS011;943;51.568;6.998;2023-02-08T15:23:17;8.03;;;4.57;;
1885;SDS011;943;51.568;6.998;2023-02-08T15:25:54;11.97;;;5.83;;
1885;SDS011;943;51.568;6.998;2023-02-08T15:28:46;7.70;;;5.63;;
1885;SDS011;943;51.568;6.998;2023-02-08T15:31:16;9.87;;;6.40;;
1885;SDS011;943;51.568;6.998;2023-02-08T15:34:05;7.63;;;6.47;;
1885;SDS011;943;51.568;6.998;2023-02-08T15:36:37;8.87;;;5.53;;
1885;SDS011;943;51.568;6.998;2023-02-08T15:39:32;6.80;;;5.33;;
1885;SDS011;943;51.568;6.998;2023-02-08T15:42:16;5.70;;;5.20;;
1885;SDS011;943;51.568;6.998;2023-02-08T15:45:01;7.57;;;4.40;;
1885;SDS011;943;51.568;6.998;2023-02-08T15:47:31;8.70;;;6.20;;
1885;SDS011;943;51.568;6.998;2023-02-08T15:50:06;12.67;;;5.50;;
1885;SDS011;943;51.568;6.998;2023-02-08T15:52:52;8.00;;;5.10;;
1885;SDS011;943;51.568;6.998;2023-02-08T15:55:38;8.53;;;4.93;;
1885;SDS011;943;51.568;6.998;2023-02-08T15:58:32;9.00;;;5.10;;
1885;SDS011;943;51.568;6.998;2023-02-08T16:01:16;9.50;;;5.57;;
1885;SDS011;943;51.568;6.998;2023-02-08T16:03:50;19.27;;;6.73;;
1885;SDS011;943;51.568;6.998;2023-02-08T16:06:37;9.57;;;5.63;;
1885;SDS011;943;51.568;6.998;2023-02-08T16:09:27;12.23;;;5.70;;
1885;SDS011;943;51.568;6.998;2023-02-08T16:12:01;11.13;;;5.90;;
1885;SDS011;943;51.568;6.998;2023-02-08T16:14:33;8.50;;;6.30;;
1885;SDS011;943;51.568;6.998;2023-02-08T16:17:30;16.60;;;10.13;;
1885;SDS011;943;51.568;6.998;2023-02-08T16:20:28;12.80;;;9.27;;
1885;SDS011;943;51.568;6.998;2023-02-08T16:23:03;11.50;;;9.40;;
1885;SDS011;943;51.568;6.998;2023-02-08T16:25:55;13.77;;;9.50;;
1885;SDS011;943;51.568;6.998;2023-02-08T16:28:50;9.27;;;7.50;;
1885;SDS011;943;51.568;6.998;2023-02-08T16:31:44;12.23;;;7.50;;
1885;SDS011;943;51.568;6.998;2023-02-08T16:34:27;12.27;;;6.50;;
1885;SDS011;943;51.568;6.998;2023-02-08T16:37:05;13.47;;;6.60;;
1885;SDS011;943;51.568;6.998;2023-02-08T16:39:59;15.80;;;7.00;;
1885;SDS011;943;51.568;6.998;2023-02-08T16:48:48;10.10;;;7.50;;
1885;SDS011;943;51.568;6.998;2023-02-08T16:54:01;20.17;;;12.37;;
1885;SDS011;943;51.568;6.998;2023-02-08T16:56:33;11.23;;;8.43;;
1885;SDS011;943;51.568;6.998;2023-02-08T16:59:04;10.80;;;7.93;;
1885;SDS011;943;51.568;6.998;2023-02-08T17:01:34;11.67;;;9.40;;
1885;SDS011;943;51.568;6.998;2023-02-08T17:04:05;11.63;;;7.80;;
1885;SDS011;943;51.568;6.998;2023-02-08T17:06:34;12.90;;;8.00;;
1885;SDS011;943;51.568;6.998;2023-02-08T17:09:07;19.90;;;9.00;;
1885;SDS011;943;51.568;6.998;2023-02-08T17:11:39;16.23;;;9.30;;
1885;SDS011;943;51.568;6.998;2023-02-08T17:14:08;13.70;;;9.20;;
1885;SDS011;943;51.568;6.998;2023-02-08T17:16:36;14.57;;;9.70;;
1885;SDS011;943;51.568;6.998;2023-02-08T17:19:05;18.20;;;9.77;;
1885;SDS011;943;51.568;6.998;2023-02-08T17:21:41;17.07;;;9.50;;
1885;SDS011;943;51.568;6.998;2023-02-08T17:24:10;14.40;;;9.70;;
1885;SDS011;943;51.568;6.998;2023-02-08T17:26:41;26.13;;;10.30;;
1885;SDS011;943;51.568;6.998;2023-02-08T17:29:10;19.70;;;10.70;;
1885;SDS011;943;51.568;6.998;2023-02-08T17:31:39;16.40;;;11.13;;
1885;SDS011;943;51.568;6.998;2023-02-08T17:34:07;19.67;;;11.20;;
1885;SDS011;943;51.568;6.998;2023-02-08T17:36:35;19.37;;;10.93;;
1885;SDS011;943;51.568;6.998;2023-02-08T17:39:07;20.70;;;12.00;;
1885;SDS011;943;51.568;6.998;2023-02-08T17:41:37;25.10;;;14.00;;
1885;SDS011;943;51.568;6.998;2023-02-08T17:44:06;23.27;;;13.50;;
1885;SDS011;943;51.568;6.998;2023-02-08T17:46:34;15.43;;;11.30;;
1885;SDS011;943;51.568;6.998;2023-02-08T17:49:02;16.27;;;9.80;;
1885;SDS011;943;51.568;6.998;2023-02-08T17:51:30;18.37;;;10.60;;
1885;SDS011;943;51.568;6.998;2023-02-08T17:54:03;15.80;;;8.70;;
1885;SDS011;943;51.568;6.998;2023-02-08T17:56:36;17.43;;;10.20;;
1885;SDS011;943;51.568;6.998;2023-02-08T17:59:04;17.43;;;8.93;;
1885;SDS011;943;51.568;6.998;2023-02-08T18:01:32;14.80;;;8.90;;
1885;SDS011;943;51.568;6.998;2023-02-08T18:04:01;14.60;;;8.93;;
1885;SDS011;943;51.568;6.998;2023-02-08T18:06:31;15.70;;;8.40;;
1885;SDS011;943;51.568;6.998;2023-02-08T18:09:01;13.20;;;8.83;;
1885;SDS011;943;51.568;6.998;2023-02-08T18:11:31;12.97;;;8.43;;
1885;SDS011;943;51.568;6.998;2023-02-08T18:13:58;11.53;;;7.77;;
1885;SDS011;943;51.568;6.998;2023-02-08T18:16:26;25.70;;;11.33;;
1885;SDS011;943;51.568;6.998;2023-02-08T18:18:56;18.60;;;9.73;;
1885;SDS011;943;51.568;6.998;2023-02-08T18:21:27;12.90;;;8.90;;
1885;SDS011;943;51.568;6.998;2023-02-08T18:24:01;21.20;;;9.60;;
1885;SDS011;943;51.568;6.998;2023-02-08T18:26:36;18.30;;;10.00;;
1885;SDS011;943;51.568;6.998;2023-02-08T18:29:04;14.57;;;9.83;;
1885;SDS011;943;51.568;6.998;2023-02-08T18:31:34;12.80;;;9.00;;
1885;SDS011;943;51.568;6.998;2023-02-08T18:34:03;15.00;;;10.57;;
1885;SDS011;943;51.568;6.998;2023-02-08T18:36:31;16.93;;;10.50;;
1885;SDS011;943;51.568;6.998;2023-02-08T18:38:58;17.83;;;10.83;;
1885;SDS011;943;51.568;6.998;2023-02-08T18:41:27;23.00;;;10.27;;
1885;SDS011;943;51.568;6.998;2023-02-08T18:43:57;15.10;;;10.30;;
1885;SDS011;943;51.568;6.998;2023-02-08T18:46:26;14.20;;;9.97;;
1885;SDS011;943;51.568;6.998;2023-02-08T18:48:55;17.80;;;10.17;;
1885;SDS011;943;51.568;6.998;2023-02-08T18:51:24;17.83;;;10.20;;
1885;SDS011;943;51.568;6.998;2023-02-08T18:53:53;21.43;;;14.00;;
1885;SDS011;943;51.568;6.998;2023-02-08T18:56:22;23.93;;;13.30;;
1885;SDS011;943;51.568;6.998;2023-02-08T18:58:54;22.80;;;12.83;;
1885;SDS011;943;51.568;6.998;2023-02-08T19:01:26;23.73;;;12.50;;